sensor_id;sensor_type;location;lat;lon;timestamp;pressure;altitude;pressure_sealevel;temperature;humidity
20616;BME280;10467;42.338;23.552;2023-06-22T16:43:01;91418.69;;;21.47;100.00
20616;BME280;10467;42.338;23.552;2023-06-22T16:45:26;91418.69;;;21.47;100.00
20616;BME280;10467;42.338;23.552;2023-06-22T16:47:52;91418.34;;;21.48;100.00
20616;BME280;10467;42.338;23.552;2023-06-22T16:50:18;91422.00;;;21.37;100.00
20616;BME280;10467;42.338;23.552;2023-06-22T16:52:43;91419.81;;;21.23;100.00
20616;BME280;10467;42.338;23.552;2023-06-22T16:55:11;91417.97;;;21.04;100.00
20616;BME280;10467;42.338;23.552;2023-06-22T16:57:36;91413.66;;;21.00;100.00
20616;BME280;10467;42.338;23.552;2023-06-22T17:00:03;91420.97;;;20.99;100.00
20616;BME280;10467;42.338;23.552;2023-06-22T17:02:34;91428.94;;;20.92;100.00
20616;BME280;10467;42.338;23.552;2023-06-22T17:05:03;91415.06;;;20.93;100.00
20616;BME280;10467;42.338;23.552;2023-06-22T17:07:33;91415.91;;;20.98;100.00
20616;BME280;10467;42.338;23.552;2023-06-22T17:10:00;91421.25;;;20.94;100.00
20616;BME280;10467;42.338;23.552;2023-06-22T17:12:28;91423.69;;;20.99;100.00
20616;BME280;10467;42.338;23.552;2023-06-22T17:15:20;91424.56;;;21.07;100.00
20616;BME280;10467;42.338;23.552;2023-06-22T17:17:46;91419.63;;;21.12;100.00
20616;BME280;10467;42.338;23.552;2023-06-22T17:20:12;91415.50;;;21.18;100.00
20616;BME280;10467;42.338;23.552;2023-06-22T17:22:37;91412.31;;;21.13;100.00
20616;BME280;10467;42.338;23.552;2023-06-22T17:25:08;91420.19;;;21.21;100.00
20616;BME280;10467;42.338;23.552;2023-06-22T17:27:35;91412.84;;;21.22;100.00
20616;BME280;10467;42.338;23.552;2023-06-22T17:30:09;91414.31;;;21.16;100.00
20616;BME280;10467;42.338;23.552;2023-06-22T17:32:35;91415.97;;;21.01;100.00
20616;BME280;10467;42.338;23.552;2023-06-22T17:35:02;91418.03;;;20.85;100.00
20616;BME280;10467;42.338;23.552;2023-06-22T17:37:32;91419.22;;;20.87;100.00
20616;BME280;10467;42.338;23.552;2023-06-22T17:39:58;91420.53;;;20.97;100.00
20616;BME280;10467;42.338;23.552;2023-06-22T17:42:24;91413.03;;;20.87;100.00
20616;BME280;10467;42.338;23.552;2023-06-22T17:44:49;91413.31;;;20.82;100.00
20616;BME280;10467;42.338;23.552;2023-06-22T17:47:22;91425.44;;;20.69;100.00
20616;BME280;10467;42.338;23.552;2023-06-22T17:49:48;91434.56;;;20.60;100.00
20616;BME280;10467;42.338;23.552;2023-06-22T17:52:18;91432.22;;;20.59;100.00
20616;BME280;10467;42.338;23.552;2023-06-22T17:54:50;91436.78;;;20.55;100.00
20616;BME280;10467;42.338;23.552;2023-06-22T17:57:17;91427.38;;;20.49;100.00
20616;BME280;10467;42.338;23.552;2023-06-22T17:59:51;91432.00;;;20.48;100.00
20616;BME280;10467;42.338;23.552;2023-06-22T18:02:22;91425.09;;;20.51;100.00
20616;BME280;10467;42.338;23.552;2023-06-22T18:04:48;91428.59;;;20.51;100.00
20616;BME280;10467;42.338;23.552;2023-06-22T18:07:14;91418.00;;;20.43;100.00
20616;BME280;10467;42.338;23.552;2023-06-22T18:09:40;91418.03;;;20.27;100.00
20616;BME280;10467;42.338;23.552;2023-06-22T18:12:08;91419.97;;;20.26;100.00
20616;BME280;10467;42.338;23.552;2023-06-22T18:14:34;91428.13;;;20.11;100.00
20616;BME280;10467;42.338;23.552;2023-06-22T18:17:00;91424.22;;;20.08;100.00
20616;BME280;10467;42.338;23.552;2023-06-22T18:19:29;91416.72;;;20.01;100.00
20616;BME280;10467;42.338;23.552;2023-06-22T18:21:56;91429.03;;;19.99;100.00
20616;BME280;10467;42.338;23.552;2023-06-22T18:24:22;91421.00;;;20.02;100.00
20616;BME280;10467;42.338;23.552;2023-06-22T18:26:48;91425.84;;;20.13;100.00
20616;BME280;10467;42.338;23.552;2023-06-22T18:29:15;91405.16;;;20.01;100.00
20616;BME280;10467;42.338;23.552;2023-06-22T18:31:42;91421.53;;;20.08;100.00
20616;BME280;10467;42.338;23.552;2023-06-22T18:34:10;91408.88;;;20.12;100.00
20616;BME280;10467;42.338;23.552;2023-06-22T18:36:45;91421.22;;;20.13;100.00
20616;BME280;10467;42.338;23.552;2023-06-22T18:39:11;91432.47;;;20.15;100.00
20616;BME280;10467;42.338;23.552;2023-06-22T18:41:39;91425.00;;;20.09;100.00
20616;BME280;10467;42.338;23.552;2023-06-22T18:44:18;91424.84;;;20.01;100.00
20616;BME280;10467;42.338;23.552;2023-06-22T18:47:05;91420.56;;;20.00;100.00
20616;BME280;10467;42.338;23.552;2023-06-22T18:52:26;91437.50;;;20.17;100.00
20616;BME280;10467;42.338;23.552;2023-06-22T18:54:52;91449.03;;;20.14;100.00
20616;BME280;10467;42.338;23.552;2023-06-22T18:57:28;91452.03;;;20.09;100.00
20616;BME280;10467;42.338;23.552;2023-06-22T19:10:23;91452.63;;;19.67;100.00
20616;BME280;10467;42.338;23.552;2023-06-22T19:12:56;91456.47;;;19.66;100.00
20616;BME280;10467;42.338;23.552;2023-06-22T19:15:32;91458.72;;;19.64;100.00
20616;BME280;10467;42.338;23.552;2023-06-22T19:20:41;91464.75;;;19.57;100.00
20616;BME280;10467;42.338;23.552;2023-06-22T19:23:23;91458.03;;;19.67;100.00
20616;BME280;10467;42.338;23.552;2023-06-22T19:25:49;91460.03;;;19.70;100.00
20616;BME280;10467;42.338;23.552;2023-06-22T19:28:15;91453.59;;;19.74;100.00
20616;BME280;10467;42.338;23.552;2023-06-22T19:30:41;91465.16;;;19.75;100.00
20616;BME280;10467;42.338;23.552;2023-06-22T19:33:07;91464.75;;;19.73;100.00
20616;BME280;10467;42.338;23.552;2023-06-22T19:35:33;91458.88;;;19.71;100.00
20616;BME280;10467;42.338;23.552;2023-06-22T19:37:58;91463.44;;;19.67;100.00
20616;BME280;10467;42.338;23.552;2023-06-22T19:40:25;91465.00;;;19.68;100.00
20616;BME280;10467;42.338;23.552;2023-06-22T19:42:53;91457.19;;;19.63;100.00
20616;BME280;10467;42.338;23.552;2023-06-22T19:45:19;91458.38;;;19.65;100.00
20616;BME280;10467;42.338;23.552;2023-06-22T19:47:45;91464.06;;;19.60;100.00
20616;BME280;10467;42.338;23.552;2023-06-22T19:50:10;91458.66;;;19.44;100.00
20616;BME280;10467;42.338;23.552;2023-06-22T19:52:37;91462.06;;;19.41;100.00
20616;BME280;10467;42.338;23.552;2023-06-22T19:55:03;91456.31;;;19.27;100.00
20616;BME280;10467;42.338;23.552;2023-06-22T19:57:37;91453.34;;;19.17;100.00
20616;BME280;10467;42.338;23.552;2023-06-22T20:00:04;91453.69;;;19.15;100.00
20616;BME280;10467;42.338;23.552;2023-06-22T20:02:33;91452.38;;;19.09;100.00
20616;BME280;10467;42.338;23.552;2023-06-22T20:05:04;91444.03;;;18.98;100.00
20616;BME280;10467;42.338;23.552;2023-06-22T20:07:34;91436.44;;;18.88;100.00
20616;BME280;10467;42.338;23.552;2023-06-22T20:12:35;91440.13;;;18.96;100.00
20616;BME280;10467;42.338;23.552;2023-06-22T20:15:23;91438.56;;;18.95;100.00
20616;BME280;10467;42.338;23.552;2023-06-22T20:17:58;91439.31;;;18.79;100.00
20616;BME280;10467;42.338;23.552;2023-06-22T20:20:25;91449.19;;;18.75;100.00
20616;BME280;10467;42.338;23.552;2023-06-22T20:22:55;91441.72;;;18.69;100.00
20616;BME280;10467;42.338;23.552;2023-06-22T20:25:22;91432.31;;;18.63;100.00
20616;BME280;10467;42.338;23.552;2023-06-22T20:27:48;91439.38;;;18.67;100.00
20616;BME280;10467;42.338;23.552;2023-06-22T20:30:19;91432.88;;;18.56;100.00
20616;BME280;10467;42.338;23.552;2023-06-22T20:32:55;91414.72;;;18.53;100.00
20616;BME280;10467;42.338;23.552;2023-06-22T20:35:22;91424.19;;;18.47;100.00
20616;BME280;10467;42.338;23.552;2023-06-22T20:37:49;91416.69;;;18.40;100.00
20616;BME280;10467;42.338;23.552;2023-06-22T20:40:19;91423.97;;;18.40;100.00
20616;BME280;10467;42.338;23.552;2023-06-22T20:42:45;91426.72;;;18.27;100.00
20616;BME280;10467;42.338;23.552;2023-06-22T20:45:10;91425.50;;;18.25;100.00
20616;BME280;10467;42.338;23.552;2023-06-22T20:47:36;91428.88;;;18.22;100.00
20616;BME280;10467;42.338;23.552;2023-06-22T20:50:02;91418.72;;;18.15;100.00
20616;BME280;10467;42.338;23.552;2023-06-22T20:52:28;91417.31;;;18.21;100.00
20616;BME280;10467;42.338;23.552;2023-06-22T20:54:54;91412.72;;;18.22;100.00
20616;BME280;10467;42.338;23.552;2023-06-22T20:57:20;91416.53;;;18.21;100.00
20616;BME280;10467;42.338;23.552;2023-06-22T20:59:46;91415.06;;;18.23;100.00
20616;BME280;10467;42.338;23.552;2023-06-22T21:02:11;91404.78;;;18.13;100.00
20616;BME280;10467;42.338;23.552;2023-06-22T21:04:37;91413.53;;;18.10;100.00
20616;BME280;10467;42.338;23.552;2023-06-22T21:07:04;91420.06;;;18.09;100.00
20616;BME280;10467;42.338;23.552;2023-06-22T21:09:30;91416.94;;;18.07;100.00
20616;BME280;10467;42.338;23.552;2023-06-22T21:11:58;91422.66;;;18.06;100.00
20616;BME280;10467;42.338;23.552;2023-06-22T21:14:23;91407.63;;;18.05;100.00
20616;BME280;10467;42.338;23.552;2023-06-22T21:16:49;91412.56;;;18.03;100.00
20616;BME280;10467;42.338;23.552;2023-06-22T21:19:14;91406.84;;;18.04;100.00
20616;BME280;10467;42.338;23.552;2023-06-22T21:21:40;91401.72;;;17.99;100.00
20616;BME280;10467;42.338;23.552;2023-06-22T21:24:05;91411.78;;;18.02;100.00
20616;BME280;10467;42.338;23.552;2023-06-22T21:26:31;91420.09;;;17.97;100.00
20616;BME280;10467;42.338;23.552;2023-06-22T21:28:56;91405.75;;;17.93;100.00
20616;BME280;10467;42.338;23.552;2023-06-22T21:31:22;91407.97;;;18.03;100.00
20616;BME280;10467;42.338;23.552;2023-06-22T21:33:48;91403.81;;;18.06;100.00
20616;BME280;10467;42.338;23.552;2023-06-22T21:36:13;91404.44;;;17.87;100.00
20616;BME280;10467;42.338;23.552;2023-06-22T21:38:38;91415.91;;;17.84;100.00
20616;BME280;10467;42.338;23.552;2023-06-22T21:41:04;91411.84;;;17.78;100.00
20616;BME280;10467;42.338;23.552;2023-06-22T21:43:29;91407.84;;;17.72;100.00
20616;BME280;10467;42.338;23.552;2023-06-22T21:45:54;91397.75;;;17.69;100.00
20616;BME280;10467;42.338;23.552;2023-06-22T21:48:20;91401.34;;;17.73;100.00
20616;BME280;10467;42.338;23.552;2023-06-22T21:50:45;91397.84;;;17.60;100.00
20616;BME280;10467;42.338;23.552;2023-06-22T21:53:11;91402.69;;;17.54;100.00
20616;BME280;10467;42.338;23.552;2023-06-22T21:55:36;91399.22;;;17.54;100.00
20616;BME280;10467;42.338;23.552;2023-06-22T21:58:02;91385.78;;;17.42;100.00
20616;BME280;10467;42.338;23.552;2023-06-22T22:00:27;91391.03;;;17.50;100.00
20616;BME280;10467;42.338;23.552;2023-06-22T22:02:52;91392.81;;;17.46;100.00
20616;BME280;10467;42.338;23.552;2023-06-22T22:05:18;91396.63;;;17.45;100.00
20616;BME280;10467;42.338;23.552;2023-06-22T22:07:44;91398.88;;;17.43;100.00
20616;BME280;10467;42.338;23.552;2023-06-22T22:10:10;91394.19;;;17.40;100.00
20616;BME280;10467;42.338;23.552;2023-06-22T22:12:37;91389.69;;;17.44;100.00
20616;BME280;10467;42.338;23.552;2023-06-22T22:15:03;91388.81;;;17.40;100.00
20616;BME280;10467;42.338;23.552;2023-06-22T22:17:29;91381.97;;;17.30;100.00
20616;BME280;10467;42.338;23.552;2023-06-22T22:19:54;91383.97;;;17.33;100.00
20616;BME280;10467;42.338;23.552;2023-06-22T22:22:20;91383.09;;;17.29;100.00
20616;BME280;10467;42.338;23.552;2023-06-22T22:24:45;91370.69;;;17.25;100.00
20616;BME280;10467;42.338;23.552;2023-06-22T22:27:11;91388.72;;;17.24;100.00
20616;BME280;10467;42.338;23.552;2023-06-22T22:29:36;91384.34;;;17.20;100.00
20616;BME280;10467;42.338;23.552;2023-06-22T22:32:02;91387.03;;;17.20;100.00
20616;BME280;10467;42.338;23.552;2023-06-22T22:34:28;91381.97;;;17.18;100.00
20616;BME280;10467;42.338;23.552;2023-06-22T22:36:54;91378.06;;;17.16;100.00
20616;BME280;10467;42.338;23.552;2023-06-22T22:39:35;91382.56;;;17.12;100.00
20616;BME280;10467;42.338;23.552;2023-06-22T22:42:05;91381.53;;;17.04;100.00
20616;BME280;10467;42.338;23.552;2023-06-22T22:44:30;91382.91;;;16.98;100.00
20616;BME280;10467;42.338;23.552;2023-06-22T22:46:56;91377.50;;;16.86;100.00
20616;BME280;10467;42.338;23.552;2023-06-22T22:49:22;91372.38;;;16.81;100.00
20616;BME280;10467;42.338;23.552;2023-06-22T22:51:49;91379.19;;;16.78;100.00
20616;BME280;10467;42.338;23.552;2023-06-22T22:54:14;91372.69;;;16.79;100.00
20616;BME280;10467;42.338;23.552;2023-06-22T22:56:40;91366.22;;;16.80;100.00
20616;BME280;10467;42.338;23.552;2023-06-22T22:59:05;91368.44;;;16.78;100.00
20616;BME280;10467;42.338;23.552;2023-06-22T23:01:31;91372.69;;;16.79;100.00
20616;BME280;10467;42.338;23.552;2023-06-22T23:03:58;91369.13;;;16.75;100.00
20616;BME280;10467;42.338;23.552;2023-06-22T23:06:24;91366.22;;;16.80;100.00
20616;BME280;10467;42.338;23.552;2023-06-22T23:08:49;91365.44;;;16.80;100.00
20616;BME280;10467;42.338;23.552;2023-06-22T23:11:24;91367.88;;;16.85;100.00
20616;BME280;10467;42.338;23.552;2023-06-22T23:13:50;91354.56;;;16.76;100.00
20616;BME280;10467;42.338;23.552;2023-06-22T23:16:21;91362.50;;;16.85;100.00
20616;BME280;10467;42.338;23.552;2023-06-22T23:18:47;91364.22;;;16.89;100.00
20616;BME280;10467;42.338;23.552;2023-06-22T23:21:12;91354.44;;;16.97;100.00
20616;BME280;10467;42.338;23.552;2023-06-22T23:23:38;91353.66;;;16.96;100.00
20616;BME280;10467;42.338;23.552;2023-06-22T23:26:03;91356.25;;;16.81;100.00
20616;BME280;10467;42.338;23.552;2023-06-22T23:28:28;91358.91;;;16.68;100.00
20616;BME280;10467;42.338;23.552;2023-06-22T23:30:54;91355.97;;;16.61;100.00
20616;BME280;10467;42.338;23.552;2023-06-22T23:33:19;91352.19;;;16.62;100.00
20616;BME280;10467;42.338;23.552;2023-06-22T23:35:45;91351.19;;;16.67;100.00
20616;BME280;10467;42.338;23.552;2023-06-22T23:38:10;91342.66;;;16.65;100.00
20616;BME280;10467;42.338;23.552;2023-06-22T23:40:36;91356.44;;;16.63;100.00
20616;BME280;10467;42.338;23.552;2023-06-22T23:43:02;91354.06;;;16.50;100.00
20616;BME280;10467;42.338;23.552;2023-06-22T23:45:28;91344.00;;;16.46;100.00
20616;BME280;10467;42.338;23.552;2023-06-22T23:47:54;91353.34;;;16.40;100.00
20616;BME280;10467;42.338;23.552;2023-06-22T23:50:20;91354.81;;;16.38;100.00
20616;BME280;10467;42.338;23.552;2023-06-22T23:52:46;91361.31;;;16.37;100.00
20616;BME280;10467;42.338;23.552;2023-06-22T23:55:14;91357.72;;;16.33;100.00
20616;BME280;10467;42.338;23.552;2023-06-22T23:57:39;91356.28;;;16.35;100.00
